This is the latest recevied weather packets stored in our database for station/object LY3PGO-4. If no packets are shown the sender has not sent any weather packets the latest 1 day(s).
| Time | Temp. | Humidity | Pressure | Rain* | Wind** | Luminosity | Snow |
|---|---|---|---|---|---|---|---|
| 1836274632 | 15° C | 99% | 1019.7 hPa | 0 mm | 0 m/s | - | - |
| 1836274502 | 15° C | 99% | 1019.8 hPa | 0 mm | 0 m/s | - | - |
| 1836274028 | 15° C | 99% | 1019.6 hPa | 0 mm | 0 m/s | - | - |
| 1778027525 | 10° C | 89% | 1009.3 hPa | 0 mm | 0 m/s | - | - |
| 1778026916 | 10° C | 88% | 1009.4 hPa | 0 mm | 0.45 m/s, 135° | - | - |
| 1778026309 | 10° C | 87% | 1009.4 hPa | 0.25 mm | 0 m/s | - | - |
| 1778025703 | 10° C | 87% | 1009.3 hPa | 0.25 mm | 0.45 m/s, 135° | - | - |
| 1778025111 | 10° C | 87% | 1009.4 hPa | 0.25 mm | 0 m/s | - | - |
| 1778024519 | 10° C | 88% | 1009.1 hPa | 0.25 mm | 0 m/s | - | - |
| 1778023885 | 10° C | 87% | 1009.1 hPa | 0.25 mm | 0 m/s | - | - |
| 1778023279 | 10.56° C | 87% | 1008.8 hPa | 0 mm | 0 m/s | - | - |
| 1778022673 | 10.56° C | 86% | 1009.2 hPa | 0 mm | 0 m/s | - | - |
| 1778022066 | 10° C | 88% | 1009.1 hPa | 0 mm | 0 m/s | - | - |
| 1778021463 | 10.56° C | 86% | 1009 hPa | 0 mm | 0 m/s | - | - |
| 1778020853 | 10.56° C | 87% | 1008.8 hPa | 0 mm | 0 m/s | - | - |
| 1778020247 | 10° C | 88% | 1008.7 hPa | 0 mm | 0.89 m/s, 135° | - | - |
| 1778019642 | 10.56° C | 87% | 1008.7 hPa | 0.25 mm | 0.89 m/s, 157° | - | - |
| 1778019035 | 10.56° C | 89% | 1009.5 hPa | 0.25 mm | 0 m/s | - | - |
| 1778018432 | 10.56° C | 90% | 1009.2 hPa | 0.25 mm | 0 m/s | - | - |
| 1778017822 | 10.56° C | 90% | 1008.9 hPa | 0.25 mm | 0 m/s | - | - |
| 1778017217 | 10.56° C | 89% | 1009 hPa | 0.25 mm | 0 m/s | - | - |
| 1778016610 | 10.56° C | 89% | 1009.4 hPa | 0.25 mm | 0.45 m/s, 247° | - | - |
| 1778016005 | 10.56° C | 88% | 1009.1 hPa | 0 mm | 0 m/s | - | - |
| 1778015401 | 10.56° C | 88% | 1008.4 hPa | 0 mm | 0 m/s | - | - |
| 1778014792 | 10.56° C | 87% | 1008.6 hPa | 0 mm | 0.45 m/s, 180° | - | - |
* Rain latest hour (hover to see other rain measurements)
** Current wind speed in m/s (hover to see current wind gust speed)